Time;durP1;ratioP1;P1;durP2;ratioP2;P2;SDS_P1;SDS_P2;PMS_P1;PMS_P2;Temp;Humidity;BMP_temperature;BMP_pressure;BME280_temperature;BME280_humidity;BME280_pressure;Samples;Min_cycle;Max_cycle;Signal;HPM_P1;HPM_P2
2020/12/20 00:02:12;;;;;;;19.92;14.30;;;3.30;99.90;;;;;;5059893;28;20211;-84
2020/12/20 00:04:38;;;;;;;23.27;17.00;;;3.20;99.90;;;;;;5058406;28;20453;-84
2020/12/20 00:07:07;;;;;;;19.17;13.40;;;3.20;99.90;;;;;;5059269;28;20222;-84
2020/12/20 00:09:33;;;;;;;22.60;16.27;;;3.20;99.90;;;;;;5058669;28;20275;-83
2020/12/20 00:12:01;;;;;;;21.55;14.68;;;3.10;99.90;;;;;;5058592;28;20290;-84
2020/12/20 00:14:28;;;;;;;20.55;15.15;;;3.10;99.90;;;;;;5058550;28;20222;-83
2020/12/20 00:16:56;;;;;;;19.15;14.98;;;3.20;99.90;;;;;;5058650;28;20203;-83
2020/12/20 00:19:22;;;;;;;20.48;14.18;;;3.20;99.90;;;;;;5058818;28;20604;-83
2020/12/20 00:21:54;;;;;;;17.88;14.77;;;3.10;99.90;;;;;;5059353;28;20199;-84
2020/12/20 00:24:20;;;;;;;18.67;14.35;;;3.10;99.90;;;;;;5060042;28;20188;-84
2020/12/20 00:26:46;;;;;;;20.52;13.95;;;3.00;99.90;;;;;;5058451;28;20227;-83
2020/12/20 00:29:14;;;;;;;19.98;14.20;;;3.00;99.90;;;;;;5064797;28;20230;-84
2020/12/20 00:31:40;;;;;;;23.17;15.27;;;2.90;99.90;;;;;;5063018;28;20229;-85
2020/12/20 00:34:07;;;;;;;21.17;15.38;;;2.90;99.90;;;;;;5061367;28;20245;-84
2020/12/20 00:36:33;;;;;;;24.15;15.68;;;2.90;99.90;;;;;;5060401;28;20207;-83
2020/12/20 00:39:00;;;;;;;20.75;14.70;;;2.80;99.90;;;;;;5075067;28;20203;-84
2020/12/20 00:41:26;;;;;;;23.85;15.90;;;2.90;99.90;;;;;;5086647;22;20231;-80
2020/12/20 00:43:52;;;;;;;26.13;15.95;;;2.90;99.90;;;;;;5061935;28;20238;-80
2020/12/20 00:46:19;;;;;;;19.80;15.00;;;2.80;99.90;;;;;;5063201;28;20206;-80
2020/12/20 00:48:46;;;;;;;25.90;15.45;;;2.80;99.90;;;;;;5063287;28;20206;-79
2020/12/20 00:51:12;;;;;;;23.17;16.58;;;2.80;99.90;;;;;;5061901;28;20602;-79
2020/12/20 00:53:39;;;;;;;24.83;17.38;;;2.90;99.90;;;;;;5063138;28;20234;-79
2020/12/20 00:56:05;;;;;;;23.55;17.13;;;2.90;99.90;;;;;;5062000;28;20203;-80
2020/12/20 00:58:33;;;;;;;22.58;15.88;;;2.90;99.90;;;;;;5062539;28;20210;-80
2020/12/20 01:01:00;;;;;;;21.98;15.45;;;2.80;99.90;;;;;;5062945;28;20226;-80
2020/12/20 01:03:27;;;;;;;22.63;16.15;;;2.70;99.90;;;;;;5063375;28;20203;-80
2020/12/20 01:05:54;;;;;;;21.00;15.20;;;2.80;99.90;;;;;;5062723;28;20206;-80
2020/12/20 01:08:20;;;;;;;25.13;17.05;;;2.80;99.90;;;;;;5062807;28;20230;-80
2020/12/20 01:10:46;;;;;;;22.50;15.70;;;2.80;99.90;;;;;;5063890;28;20280;-80
2020/12/20 01:13:13;;;;;;;22.73;15.90;;;2.70;99.90;;;;;;5063391;28;20203;-80
2020/12/20 01:15:39;;;;;;;23.38;15.23;;;2.70;99.90;;;;;;5060947;28;20578;-80
2020/12/20 01:18:06;;;;;;;22.95;15.63;;;2.70;99.90;;;;;;5068692;28;20628;-80
2020/12/20 01:20:33;;;;;;;20.67;15.10;;;2.80;99.90;;;;;;5075836;28;20286;-80
2020/12/20 01:22:59;;;;;;;20.35;15.20;;;2.80;99.90;;;;;;5069390;28;20207;-80
2020/12/20 01:25:25;;;;;;;21.23;16.25;;;2.80;99.90;;;;;;5062943;28;20325;-79
2020/12/20 01:27:52;;;;;;;22.25;16.65;;;2.80;99.90;;;;;;5061218;28;20261;-80
2020/12/20 01:30:18;;;;;;;22.52;15.60;;;2.80;99.90;;;;;;5060927;28;20313;-80
2020/12/20 01:32:44;;;;;;;22.42;15.32;;;2.80;99.90;;;;;;5059706;28;20211;-79
2020/12/20 01:35:11;;;;;;;22.65;15.57;;;2.80;99.90;;;;;;5057193;28;20639;-78
2020/12/20 01:37:38;;;;;;;21.50;15.75;;;2.80;99.90;;;;;;5056259;28;20233;-79
2020/12/20 01:40:06;;;;;;;24.30;16.38;;;2.80;99.90;;;;;;5056925;28;20318;-79
2020/12/20 01:42:32;;;;;;;22.00;15.45;;;2.80;99.90;;;;;;5057184;28;20496;-79
2020/12/20 01:44:58;;;;;;;24.77;15.57;;;2.80;99.90;;;;;;5057651;28;20209;-79
2020/12/20 01:47:29;;;;;;;28.98;17.95;;;2.80;99.90;;;;;;5057117;28;20318;-78
2020/12/20 01:49:55;;;;;;;23.55;15.45;;;2.80;99.90;;;;;;5057858;28;20655;-80
2020/12/20 01:52:22;;;;;;;22.35;14.07;;;2.80;99.90;;;;;;5058492;28;20203;-78
2020/12/20 01:54:51;;;;;;;22.52;15.95;;;2.70;99.90;;;;;;5061107;28;20270;-78
2020/12/20 01:57:18;;;;;;;23.83;16.08;;;2.70;99.90;;;;;;5060642;28;20238;-78
2020/12/20 01:59:45;;;;;;;24.30;16.38;;;2.70;99.90;;;;;;5061146;28;20267;-79
2020/12/20 02:02:12;;;;;;;29.13;18.13;;;2.70;99.90;;;;;;5060808;28;20691;-79
2020/12/20 02:04:39;;;;;;;24.02;17.38;;;2.70;99.90;;;;;;5060690;28;20199;-79
2020/12/20 02:07:05;;;;;;;23.60;16.92;;;2.60;99.90;;;;;;5059945;28;20286;-78
2020/12/20 02:09:32;;;;;;;25.60;16.70;;;2.80;99.90;;;;;;5061168;28;20610;-79
2020/12/20 02:12:03;;;;;;;27.40;17.83;;;2.60;99.90;;;;;;5061277;28;20202;-79
2020/12/20 02:14:29;;;;;;;27.25;16.85;;;2.60;99.90;;;;;;5060776;28;20236;-79
2020/12/20 02:16:56;;;;;;;25.73;16.75;;;2.60;99.90;;;;;;5061223;28;20199;-79
2020/12/20 02:19:22;;;;;;;27.05;17.27;;;2.60;99.90;;;;;;5060832;28;20207;-78
2020/12/20 02:21:49;;;;;;;25.65;17.30;;;2.60;99.90;;;;;;5061402;28;20222;-80
2020/12/20 02:24:16;;;;;;;24.33;15.40;;;2.60;99.90;;;;;;5060951;28;20207;-80
2020/12/20 02:26:42;;;;;;;21.90;15.35;;;2.60;99.90;;;;;;5061282;28;20254;-78
2020/12/20 02:29:09;;;;;;;26.05;17.75;;;2.70;99.90;;;;;;5060546;28;20245;-78
2020/12/20 02:31:36;;;;;;;25.55;17.20;;;2.80;99.90;;;;;;5059087;28;20219;-78
2020/12/20 02:34:03;;;;;;;22.25;16.05;;;2.60;99.90;;;;;;5059725;28;20202;-78
2020/12/20 02:36:29;;;;;;;25.23;17.05;;;2.50;99.90;;;;;;5059787;28;20199;-79
2020/12/20 02:38:57;;;;;;;25.10;17.08;;;2.50;99.90;;;;;;5060283;28;20206;-78
2020/12/20 02:41:24;;;;;;;31.67;18.45;;;2.60;99.90;;;;;;5065877;28;20233;-79
2020/12/20 02:43:50;;;;;;;30.60;17.35;;;2.70;99.90;;;;;;5066435;28;20247;-79
2020/12/20 02:46:17;;;;;;;26.65;16.77;;;2.70;99.90;;;;;;5068222;28;20664;-79
2020/12/20 02:48:44;;;;;;;24.55;18.95;;;2.70;99.90;;;;;;5063973;28;20707;-79
2020/12/20 02:51:10;;;;;;;24.65;17.00;;;2.80;99.90;;;;;;5064763;28;20229;-79
2020/12/20 02:53:37;;;;;;;26.90;17.35;;;2.80;99.90;;;;;;5064047;28;20229;-79
2020/12/20 02:56:04;;;;;;;30.27;18.55;;;2.90;99.90;;;;;;5064338;28;20276;-78
2020/12/20 02:58:30;;;;;;;23.65;16.52;;;2.90;99.90;;;;;;5063957;28;20267;-78
2020/12/20 03:00:56;;;;;;;24.35;17.30;;;2.80;99.90;;;;;;5064563;28;20218;-78
2020/12/20 03:03:23;;;;;;;24.52;17.17;;;2.80;99.90;;;;;;5065238;28;20685;-78
2020/12/20 03:05:49;;;;;;;26.90;17.80;;;2.80;99.90;;;;;;5071372;28;20209;-78
2020/12/20 03:08:15;;;;;;;24.63;17.35;;;2.70;99.90;;;;;;5072810;28;20218;-79
2020/12/20 03:10:42;;;;;;;27.60;17.95;;;2.60;99.90;;;;;;5072920;28;20254;-79
2020/12/20 03:13:09;;;;;;;24.08;17.77;;;2.60;99.90;;;;;;5073481;28;20233;-79
2020/12/20 03:15:38;;;;;;;23.67;17.20;;;2.60;99.90;;;;;;5073240;28;20233;-79
2020/12/20 03:18:04;;;;;;;28.45;16.60;;;2.60;99.90;;;;;;5073847;28;20610;-79
2020/12/20 03:20:30;;;;;;;27.35;18.70;;;2.60;99.90;;;;;;5073774;28;20309;-79
2020/12/20 03:22:58;;;;;;;25.00;17.02;;;2.60;99.90;;;;;;5069969;28;20199;-79
2020/12/20 03:25:25;;;;;;;26.88;16.70;;;2.60;99.90;;;;;;5068138;28;20238;-79
2020/12/20 03:27:51;;;;;;;29.65;18.33;;;2.70;99.90;;;;;;5067497;28;20248;-79
2020/12/20 03:30:19;;;;;;;27.90;18.52;;;2.70;99.90;;;;;;5067146;28;20238;-79
2020/12/20 03:32:45;;;;;;;28.90;18.00;;;2.70;99.90;;;;;;5069328;28;20213;-79
2020/12/20 03:35:12;;;;;;;26.40;17.83;;;2.70;99.90;;;;;;5074388;28;20238;-79
2020/12/20 03:37:38;;;;;;;28.88;18.42;;;2.70;99.90;;;;;;5075410;28;20206;-79
2020/12/20 03:40:05;;;;;;;25.23;17.15;;;2.70;99.90;;;;;;5076538;28;20261;-79
2020/12/20 03:42:31;;;;;;;26.50;18.42;;;2.70;99.90;;;;;;5076553;28;20250;-79
2020/12/20 03:44:57;;;;;;;22.95;16.83;;;2.70;99.90;;;;;;5076952;28;20207;-79
2020/12/20 03:47:25;;;;;;;26.85;18.92;;;2.70;99.90;;;;;;5075657;28;20234;-79
2020/12/20 03:49:51;;;;;;;23.77;17.70;;;2.70;99.90;;;;;;5073597;28;20241;-79
2020/12/20 03:52:17;;;;;;;22.27;16.10;;;2.80;99.90;;;;;;5070366;28;20203;-79
2020/12/20 03:54:43;;;;;;;24.13;16.60;;;2.80;99.90;;;;;;5072217;28;20286;-79
2020/12/20 03:57:10;;;;;;;26.98;17.65;;;2.90;99.90;;;;;;5071753;28;20232;-79
2020/12/20 03:59:39;;;;;;;27.80;18.52;;;2.90;99.90;;;;;;5071503;28;20214;-79
2020/12/20 04:02:05;;;;;;;22.70;16.80;;;2.90;99.90;;;;;;5069098;28;20210;-79
2020/12/20 04:04:33;;;;;;;26.67;19.15;;;2.90;99.90;;;;;;5070069;28;20237;-79
2020/12/20 04:06:59;;;;;;;33.65;19.70;;;2.90;99.90;;;;;;5069172;28;20219;-79
2020/12/20 04:09:25;;;;;;;28.42;18.80;;;2.90;99.90;;;;;;5069885;28;20253;-79
2020/12/20 04:11:52;;;;;;;34.58;20.30;;;3.00;99.90;;;;;;5068340;28;20266;-79
2020/12/20 04:14:18;;;;;;;24.20;17.80;;;3.00;99.90;;;;;;5066454;28;20204;-79
2020/12/20 04:16:44;;;;;;;26.35;18.67;;;2.90;99.90;;;;;;5067646;28;20210;-79
2020/12/20 04:19:11;;;;;;;23.50;17.30;;;3.10;99.90;;;;;;5069319;28;20238;-79
2020/12/20 04:21:38;;;;;;;27.98;18.13;;;3.00;99.90;;;;;;5071237;28;20223;-79
2020/12/20 04:24:04;;;;;;;25.08;18.42;;;3.00;99.90;;;;;;5070552;28;20245;-79
2020/12/20 04:26:31;;;;;;;26.40;19.27;;;3.10;99.90;;;;;;5074117;28;20207;-79
2020/12/20 04:28:57;;;;;;;26.30;17.40;;;2.90;99.90;;;;;;5078529;28;20205;-79
2020/12/20 04:31:24;;;;;;;25.30;18.77;;;3.00;99.90;;;;;;5076461;28;20253;-79
2020/12/20 04:33:51;;;;;;;26.10;17.67;;;2.90;99.90;;;;;;5073039;28;20211;-79
2020/12/20 04:36:17;;;;;;;26.55;18.52;;;2.80;99.90;;;;;;5071022;28;20209;-79
2020/12/20 04:38:44;;;;;;;29.85;18.80;;;2.80;99.90;;;;;;5071103;28;20571;-79
2020/12/20 04:41:11;;;;;;;28.33;18.77;;;2.80;99.90;;;;;;5070924;28;20302;-79
2020/12/20 04:43:38;;;;;;;29.58;19.30;;;2.80;99.90;;;;;;5070383;28;20274;-79
2020/12/20 04:46:05;;;;;;;25.52;17.63;;;2.80;99.90;;;;;;5071098;28;20658;-79
2020/12/20 04:48:36;;;;;;;28.95;18.90;;;2.80;99.90;;;;;;5071410;28;20258;-79
2020/12/20 04:51:03;;;;;;;28.40;19.67;;;2.80;99.90;;;;;;5072573;28;20223;-79
2020/12/20 04:53:30;;;;;;;29.10;19.00;;;2.80;99.90;;;;;;5072590;28;20269;-79
2020/12/20 04:56:01;;;;;;;28.42;20.23;;;2.80;99.90;;;;;;5064187;28;20207;-79
2020/12/20 04:58:28;;;;;;;30.08;20.10;;;2.80;99.90;;;;;;5063371;28;20183;-79
2020/12/20 05:00:54;;;;;;;29.70;20.45;;;2.80;99.90;;;;;;5061583;28;20290;-78
2020/12/20 05:03:20;;;;;;;28.40;21.05;;;2.70;99.90;;;;;;5062099;28;20203;-78
2020/12/20 05:05:47;;;;;;;30.15;20.75;;;2.60;99.90;;;;;;5071397;28;20202;-80
2020/12/20 05:08:14;;;;;;;28.77;19.88;;;2.60;99.90;;;;;;5073163;28;20286;-79
2020/12/20 05:10:41;;;;;;;29.98;21.05;;;2.60;99.90;;;;;;5073139;28;20226;-79
2020/12/20 05:13:09;;;;;;;28.65;20.10;;;2.60;99.90;;;;;;5072684;28;20190;-79
2020/12/20 05:15:35;;;;;;;27.15;19.70;;;2.50;99.90;;;;;;5072410;28;20266;-78
2020/12/20 05:18:05;;;;;;;30.55;20.20;;;2.40;99.90;;;;;;5072150;28;20203;-79
2020/12/20 05:20:37;;;;;;;27.92;19.30;;;2.30;99.90;;;;;;5071482;28;20223;-79
2020/12/20 05:23:03;;;;;;;30.65;20.35;;;2.40;99.90;;;;;;5073364;28;20210;-79
2020/12/20 05:25:31;;;;;;;26.67;20.15;;;2.50;99.90;;;;;;5072970;28;20266;-79
2020/12/20 05:28:13;;;;;;;28.83;19.75;;;2.40;99.90;;;;;;5072355;28;20234;-79
2020/12/20 05:30:40;;;;;;;30.17;21.60;;;2.40;99.90;;;;;;5070550;28;20268;-79
2020/12/20 05:33:07;;;;;;;28.75;20.60;;;2.30;99.90;;;;;;5062342;28;20207;-80
2020/12/20 05:35:34;;;;;;;25.88;18.77;;;2.30;99.90;;;;;;5064764;28;20213;-80
2020/12/20 05:38:01;;;;;;;29.90;19.98;;;2.30;99.90;;;;;;5064911;28;20227;-80
2020/12/20 05:40:29;;;;;;;25.05;19.48;;;2.30;99.90;;;;;;5064719;28;20227;-80
2020/12/20 05:43:01;;;;;;;31.08;20.38;;;2.30;99.90;;;;;;5064820;28;20199;-80
2020/12/20 05:45:31;;;;;;;28.55;20.33;;;2.20;99.90;;;;;;5070232;28;20187;-80
2020/12/20 05:47:58;;;;;;;25.80;19.63;;;2.20;99.90;;;;;;5070283;28;20222;-79
2020/12/20 05:50:28;;;;;;;29.45;19.63;;;2.20;99.90;;;;;;5070886;28;20318;-79
2020/12/20 05:53:05;;;;;;;29.67;18.92;;;2.20;99.90;;;;;;5064069;28;20632;-79
2020/12/20 05:55:39;;;;;;;28.30;19.77;;;2.30;99.90;;;;;;5064432;28;20206;-79
2020/12/20 05:58:13;;;;;;;31.65;22.10;;;2.30;99.90;;;;;;5072768;28;20186;-79
2020/12/20 06:00:42;;;;;;;27.92;19.05;;;2.20;99.90;;;;;;5077519;28;20234;-79
2020/12/20 06:03:09;;;;;;;30.17;20.65;;;2.20;99.90;;;;;;5076668;28;20491;-79
2020/12/20 06:05:39;;;;;;;27.20;20.17;;;2.20;99.90;;;;;;5077719;28;20242;-79
2020/12/20 06:08:08;;;;;;;29.20;20.45;;;2.20;99.90;;;;;;5074235;28;20218;-81
2020/12/20 06:10:36;;;;;;;29.98;21.83;;;2.20;99.90;;;;;;5059604;28;20466;-80
2020/12/20 06:13:09;;;;;;;32.92;23.15;;;2.20;99.90;;;;;;5060884;28;20285;-80
2020/12/20 06:15:38;;;;;;;31.60;21.40;;;2.20;99.90;;;;;;5059945;28;20281;-80
2020/12/20 06:18:08;;;;;;;29.63;20.50;;;2.20;99.90;;;;;;5060452;28;20671;-79
2020/12/20 06:20:49;;;;;;;37.85;22.85;;;2.20;99.90;;;;;;5060091;28;20256;-81
2020/12/20 06:23:19;;;;;;;30.88;22.30;;;2.20;99.90;;;;;;5059114;28;20447;-81
2020/12/20 06:25:46;;;;;;;35.47;22.23;;;2.20;99.90;;;;;;5060306;28;20203;-79
2020/12/20 06:28:16;;;;;;;32.80;22.02;;;2.20;99.90;;;;;;5062189;28;20287;-80
2020/12/20 06:30:42;;;;;;;35.58;20.90;;;2.30;99.90;;;;;;5061874;28;20594;-81
2020/12/20 06:33:17;;;;;;;34.38;22.90;;;2.20;99.90;;;;;;5061767;28;20203;-81
2020/12/20 06:35:48;;;;;;;39.08;21.98;;;2.20;99.90;;;;;;5062048;28;20195;-80
2020/12/20 06:38:19;;;;;;;36.10;22.95;;;2.20;99.90;;;;;;5063678;28;20183;-80
2020/12/20 06:40:45;;;;;;;44.33;24.90;;;2.20;99.90;;;;;;5096143;22;20284;-85
2020/12/20 06:43:12;;;;;;;41.80;24.67;;;2.20;99.90;;;;;;5060931;28;20267;-84
2020/12/20 06:45:41;;;;;;;34.33;21.80;;;2.30;99.90;;;;;;5057452;28;20218;-83
2020/12/20 06:48:09;;;;;;;34.90;23.50;;;2.20;99.90;;;;;;5057366;28;20223;-84
2020/12/20 06:50:44;;;;;;;31.92;21.75;;;2.30;99.90;;;;;;5057141;28;20235;-84
2020/12/20 06:53:12;;;;;;;30.45;23.10;;;2.40;99.90;;;;;;5055852;28;20724;-86
2020/12/20 06:55:39;;;;;;;32.75;21.48;;;2.40;99.90;;;;;;5055168;28;20233;-83
2020/12/20 06:58:13;;;;;;;40.50;23.38;;;2.30;99.90;;;;;;5056016;28;20616;-85
2020/12/20 07:00:51;;;;;;;35.45;23.77;;;2.20;99.90;;;;;;5055595;28;20261;-84
2020/12/20 07:03:40;;;;;;;32.17;21.38;;;2.20;99.90;;;;;;5056266;28;20230;-84
2020/12/20 07:06:19;;;;;;;33.85;23.65;;;2.20;99.90;;;;;;5055572;28;20194;-84
2020/12/20 07:09:03;;;;;;;34.45;25.60;;;2.30;99.90;;;;;;5054305;28;20452;-85
2020/12/20 07:11:30;;;;;;;35.40;23.40;;;2.30;99.90;;;;;;5055905;28;20277;-86
2020/12/20 07:13:57;;;;;;;35.30;22.80;;;2.30;99.90;;;;;;5055601;28;20295;-84
2020/12/20 07:16:25;;;;;;;33.10;23.52;;;2.30;99.90;;;;;;5055795;28;20291;-84
2020/12/20 07:18:57;;;;;;;34.60;24.40;;;2.40;99.90;;;;;;5054887;28;20203;-85
2020/12/20 07:21:46;;;;;;;37.65;24.02;;;2.40;99.90;;;;;;5055912;28;20223;-84
2020/12/20 07:24:17;;;;;;;33.72;22.75;;;2.40;99.90;;;;;;5056037;28;20214;-84
2020/12/20 07:26:43;;;;;;;36.90;25.25;;;2.30;99.90;;;;;;5057823;28;20198;-84
2020/12/20 07:29:10;;;;;;;37.30;26.23;;;2.30;99.90;;;;;;5060056;28;20213;-85
2020/12/20 07:31:37;;;;;;;37.17;23.67;;;2.20;99.90;;;;;;5060171;28;20313;-86
2020/12/20 07:34:05;;;;;;;39.33;25.52;;;2.20;99.90;;;;;;5062712;28;20206;-84
2020/12/20 07:36:31;;;;;;;38.58;25.55;;;2.10;99.90;;;;;;5063022;28;20203;-84
2020/12/20 07:38:58;;;;;;;40.00;26.08;;;2.20;99.90;;;;;;5064675;28;20203;-84
2020/12/20 07:41:25;;;;;;;37.50;25.08;;;2.20;99.90;;;;;;5059226;28;20241;-84
2020/12/20 07:43:52;;;;;;;35.65;22.40;;;2.30;99.90;;;;;;5059961;28;20237;-86
2020/12/20 07:46:20;;;;;;;34.70;23.90;;;2.30;99.90;;;;;;5059386;28;20294;-84
2020/12/20 07:48:47;;;;;;;33.40;22.80;;;2.30;99.90;;;;;;5059236;28;20287;-84
2020/12/20 07:51:17;;;;;;;39.15;25.70;;;2.40;99.90;;;;;;5059318;28;20234;-87
2020/12/20 07:53:47;;;;;;;36.70;24.38;;;2.40;99.90;;;;;;5059109;28;20439;-85
2020/12/20 07:56:22;;;;;;;40.30;25.65;;;2.30;99.90;;;;;;5058858;28;20479;-85
2020/12/20 07:58:49;;;;;;;40.35;25.90;;;2.40;99.90;;;;;;5059307;28;20198;-85
2020/12/20 08:01:16;;;;;;;37.53;24.63;;;2.30;99.90;;;;;;5058947;28;20229;-85
2020/12/20 08:03:42;;;;;;;43.70;26.10;;;2.30;99.90;;;;;;5058897;28;20233;-85
2020/12/20 08:06:09;;;;;;;37.42;25.20;;;2.20;99.90;;;;;;5059393;28;20199;-84
2020/12/20 08:08:36;;;;;;;35.85;23.58;;;2.30;99.90;;;;;;5059594;28;20227;-85
2020/12/20 08:11:05;;;;;;;31.10;22.55;;;2.30;99.90;;;;;;5059583;28;20227;-85
2020/12/20 08:13:32;;;;;;;34.25;21.70;;;2.20;99.90;;;;;;5060115;28;20214;-85
2020/12/20 08:15:59;;;;;;;33.22;22.35;;;2.30;99.90;;;;;;5059717;28;20203;-85
2020/12/20 08:18:25;;;;;;;30.48;20.85;;;2.30;99.90;;;;;;5063530;28;20263;-84
2020/12/20 08:20:52;;;;;;;33.03;23.33;;;2.40;99.90;;;;;;5062511;28;20229;-85
2020/12/20 08:23:23;;;;;;;37.70;23.63;;;2.40;99.90;;;;;;5059236;28;20226;-85
2020/12/20 08:25:49;;;;;;;31.85;20.83;;;2.40;99.90;;;;;;5059233;28;20240;-85
2020/12/20 08:28:15;;;;;;;35.13;20.65;;;2.40;99.90;;;;;;5058951;28;20314;-85
2020/12/20 08:30:43;;;;;;;32.33;21.83;;;2.40;99.90;;;;;;5058756;28;20593;-86
2020/12/20 08:33:09;;;;;;;32.15;20.25;;;2.40;99.90;;;;;;5059782;28;20356;-85
2020/12/20 08:35:35;;;;;;;38.60;23.60;;;2.40;99.90;;;;;;5059029;28;20202;-84
2020/12/20 08:38:02;;;;;;;40.03;25.58;;;2.40;99.90;;;;;;5059078;28;20290;-85
2020/12/20 08:40:31;;;;;;;36.08;24.10;;;2.40;99.90;;;;;;5058382;28;20681;-85
2020/12/20 08:42:58;;;;;;;31.70;20.63;;;2.40;99.90;;;;;;5058230;28;20276;-85
2020/12/20 08:45:26;;;;;;;34.85;22.45;;;2.40;99.90;;;;;;5057107;28;20226;-86
2020/12/20 08:48:00;;;;;;;43.45;26.80;;;2.40;99.90;;;;;;5057972;28;20223;-86
2020/12/20 08:50:37;;;;;;;43.20;26.48;;;2.60;99.90;;;;;;5059747;28;20289;-85
2020/12/20 08:53:05;;;;;;;43.90;27.77;;;2.60;99.90;;;;;;5059245;28;20270;-84
2020/12/20 08:55:32;;;;;;;32.60;23.25;;;2.60;99.90;;;;;;5068101;28;20199;-85
2020/12/20 08:58:03;;;;;;;33.22;22.98;;;2.60;99.90;;;;;;5069000;28;20225;-85
2020/12/20 09:00:29;;;;;;;33.08;21.80;;;2.60;99.90;;;;;;5068578;28;20230;-85
2020/12/20 09:03:00;;;;;;;29.88;20.42;;;2.60;99.90;;;;;;5061367;28;20252;-85
2020/12/20 09:05:28;;;;;;;32.55;20.52;;;2.50;99.90;;;;;;5061990;28;20261;-85
2020/12/20 09:07:57;;;;;;;29.77;19.33;;;2.60;99.90;;;;;;5059118;28;20284;-85
2020/12/20 09:10:26;;;;;;;30.58;19.60;;;2.70;99.90;;;;;;5059075;28;20253;-85
2020/12/20 09:12:53;;;;;;;30.95;18.35;;;2.80;99.90;;;;;;5057325;28;20221;-85
2020/12/20 09:15:20;;;;;;;27.27;19.95;;;2.80;99.90;;;;;;5057477;28;20678;-85
2020/12/20 09:17:48;;;;;;;28.02;19.58;;;2.70;99.90;;;;;;5059257;28;20202;-85
2020/12/20 09:20:17;;;;;;;27.95;18.52;;;2.80;99.90;;;;;;5058680;28;20227;-85
2020/12/20 09:22:52;;;;;;;27.25;18.55;;;2.90;99.90;;;;;;5058117;28;20207;-85
2020/12/20 09:25:35;;;;;;;28.80;18.83;;;2.90;99.90;;;;;;5059187;28;20197;-86
2020/12/20 09:28:06;;;;;;;26.52;17.88;;;2.90;99.90;;;;;;5071211;28;20282;-85
2020/12/20 09:30:38;;;;;;;25.48;18.55;;;3.00;99.90;;;;;;5071856;28;20251;-85
2020/12/20 09:33:22;;;;;;;28.67;18.38;;;2.90;99.90;;;;;;5059166;28;20187;-85
2020/12/20 09:35:55;;;;;;;26.20;17.05;;;2.90;99.90;;;;;;5059475;28;20194;-85
2020/12/20 09:38:23;;;;;;;30.50;19.63;;;3.10;99.90;;;;;;5058274;28;20199;-85
2020/12/20 09:40:56;;;;;;;25.45;17.75;;;3.00;99.90;;;;;;5057584;28;20294;-85
2020/12/20 09:43:22;;;;;;;25.25;17.00;;;3.20;99.90;;;;;;5060206;28;20544;-85
2020/12/20 09:45:49;;;;;;;27.42;17.60;;;3.20;99.90;;;;;;5062174;28;20262;-85
2020/12/20 09:48:15;;;;;;;24.40;16.40;;;3.30;99.90;;;;;;5058270;28;20215;-85
2020/12/20 09:50:41;;;;;;;24.45;17.73;;;3.30;99.90;;;;;;5057426;28;20445;-85
2020/12/20 09:53:09;;;;;;;24.23;16.23;;;3.40;99.90;;;;;;5058466;28;20246;-85
2020/12/20 09:55:41;;;;;;;25.65;17.20;;;3.40;99.90;;;;;;5057894;28;20205;-85
2020/12/20 09:58:08;;;;;;;25.27;18.13;;;3.50;99.90;;;;;;5057709;28;20647;-85
2020/12/20 10:00:34;;;;;;;24.95;16.65;;;3.60;99.90;;;;;;5057472;28;20254;-85
2020/12/20 10:03:01;;;;;;;27.00;17.38;;;3.60;99.90;;;;;;5057246;28;20213;-85
2020/12/20 10:05:27;;;;;;;23.88;17.00;;;3.60;99.90;;;;;;5058296;28;20226;-85
2020/12/20 10:07:53;;;;;;;23.05;16.25;;;3.70;99.90;;;;;;5069153;28;20249;-85
2020/12/20 10:10:20;;;;;;;25.00;17.35;;;3.70;99.90;;;;;;5059574;28;20444;-84
2020/12/20 10:12:47;;;;;;;21.90;15.60;;;3.60;99.90;;;;;;5059135;28;20213;-85
2020/12/20 10:15:16;;;;;;;23.92;16.92;;;3.60;99.90;;;;;;5058511;28;20209;-85
2020/12/20 10:17:43;;;;;;;24.88;16.27;;;3.70;99.90;;;;;;5058646;28;20675;-85
2020/12/20 10:20:09;;;;;;;24.00;16.42;;;3.70;99.90;;;;;;5056970;28;20202;-84
2020/12/20 10:22:35;;;;;;;25.17;16.70;;;3.80;99.90;;;;;;5056444;28;20439;-84
2020/12/20 10:25:02;;;;;;;24.98;16.67;;;3.90;99.90;;;;;;5056617;28;20532;-84
2020/12/20 10:27:29;;;;;;;23.95;16.90;;;4.00;99.90;;;;;;5055831;28;20229;-85
2020/12/20 10:29:55;;;;;;;22.70;15.88;;;4.10;99.90;;;;;;5056636;28;20276;-85
2020/12/20 10:32:21;;;;;;;22.95;15.27;;;4.20;99.90;;;;;;5057311;28;20203;-85
2020/12/20 10:34:48;;;;;;;22.75;15.63;;;4.40;99.90;;;;;;5058902;28;20230;-84
2020/12/20 10:37:14;;;;;;;19.38;14.27;;;4.40;99.90;;;;;;5059136;28;20242;-84
2020/12/20 10:39:41;;;;;;;22.98;15.73;;;4.50;99.90;;;;;;5060915;28;20646;-84
2020/12/20 10:42:07;;;;;;;18.00;14.05;;;4.40;99.90;;;;;;5061237;28;20231;-84
2020/12/20 10:44:34;;;;;;;21.95;14.50;;;4.50;99.90;;;;;;5065287;28;20293;-84
2020/12/20 10:47:01;;;;;;;21.23;14.60;;;4.60;99.90;;;;;;5060968;28;20237;-84
2020/12/20 10:49:27;;;;;;;22.08;16.05;;;4.60;99.90;;;;;;5060440;28;20239;-84
2020/12/20 10:51:55;;;;;;;19.35;14.90;;;4.70;99.90;;;;;;5064593;28;20222;-85
2020/12/20 10:54:29;;;;;;;25.77;15.57;;;4.80;99.90;;;;;;5064048;28;20210;-85
2020/12/20 10:56:59;;;;;;;22.52;16.02;;;4.60;99.90;;;;;;5061106;28;20624;-85
2020/12/20 10:59:32;;;;;;;20.27;14.60;;;4.60;99.90;;;;;;5060020;28;20207;-84
2020/12/20 11:02:03;;;;;;;25.27;15.25;;;4.80;99.90;;;;;;5062139;28;20223;-85
2020/12/20 11:04:32;;;;;;;20.05;14.98;;;4.70;99.90;;;;;;5062834;28;20241;-85
2020/12/20 11:07:01;;;;;;;18.13;13.90;;;4.70;99.90;;;;;;5066557;28;20293;-85
2020/12/20 11:09:32;;;;;;;18.48;13.90;;;4.70;99.90;;;;;;5065955;28;20596;-86
2020/12/20 11:12:01;;;;;;;17.30;12.90;;;4.70;99.90;;;;;;5061965;28;20298;-85
2020/12/20 11:14:29;;;;;;;20.65;13.88;;;4.60;99.90;;;;;;5062157;28;20222;-86
2020/12/20 11:16:56;;;;;;;16.98;12.75;;;4.70;99.90;;;;;;5062163;28;20679;-85
2020/12/20 11:19:23;;;;;;;18.02;13.48;;;4.60;99.90;;;;;;5062672;28;20206;-85
2020/12/20 11:21:53;;;;;;;17.33;12.95;;;4.80;99.90;;;;;;5062022;28;20245;-85
2020/12/20 11:24:23;;;;;;;18.55;13.70;;;4.70;99.90;;;;;;5061251;28;20288;-85
2020/12/20 11:27:06;;;;;;;20.00;13.05;;;4.70;99.90;;;;;;5068521;28;20568;-85
2020/12/20 11:29:32;;;;;;;20.15;14.10;;;4.80;99.90;;;;;;5061842;28;20207;-85
2020/12/20 11:31:59;;;;;;;18.92;14.10;;;4.80;99.90;;;;;;5061279;28;20798;-85
2020/12/20 11:34:28;;;;;;;19.58;14.05;;;4.80;99.90;;;;;;5060100;28;20234;-85
2020/12/20 11:36:54;;;;;;;18.65;12.65;;;4.60;99.90;;;;;;5059712;28;20199;-85
2020/12/20 11:39:22;;;;;;;18.65;12.80;;;4.80;99.90;;;;;;5060494;28;20727;-85
2020/12/20 11:41:51;;;;;;;18.48;12.70;;;4.80;99.90;;;;;;5061425;28;20227;-85
2020/12/20 11:44:18;;;;;;;18.85;13.35;;;4.90;99.90;;;;;;5060804;28;20207;-85
2020/12/20 11:46:45;;;;;;;19.20;14.18;;;4.90;99.90;;;;;;5061215;28;20205;-85
2020/12/20 11:49:12;;;;;;;17.38;12.55;;;4.90;99.90;;;;;;5061286;28;20203;-85
2020/12/20 11:51:43;;;;;;;20.52;14.20;;;5.00;99.90;;;;;;5062248;28;20226;-84
2020/12/20 11:54:09;;;;;;;20.15;13.38;;;5.00;99.90;;;;;;5062951;28;20214;-86
2020/12/20 11:56:36;;;;;;;19.73;14.65;;;5.10;99.90;;;;;;5062153;28;20203;-86
2020/12/20 11:59:02;;;;;;;20.15;14.38;;;5.10;99.90;;;;;;5064499;28;20205;-84
2020/12/20 12:01:30;;;;;;;18.48;12.15;;;5.10;99.90;;;;;;5064068;28;20703;-86
2020/12/20 12:03:56;;;;;;;18.65;12.90;;;5.10;99.90;;;;;;5061940;28;20227;-77
2020/12/20 12:06:22;;;;;;;24.20;14.20;;;5.20;99.90;;;;;;5061840;28;20576;-85
2020/12/20 12:08:50;;;;;;;18.00;12.88;;;5.10;99.90;;;;;;5061380;28;20376;-85
2020/12/20 12:11:20;;;;;;;18.25;13.40;;;5.10;99.90;;;;;;5061085;28;20262;-85
2020/12/20 12:13:46;;;;;;;16.70;12.48;;;5.20;99.90;;;;;;5060671;28;20187;-85
2020/12/20 12:16:16;;;;;;;20.60;13.02;;;5.30;99.90;;;;;;5061921;28;20233;-86
2020/12/20 12:18:42;;;;;;;18.15;13.30;;;5.20;99.90;;;;;;5062099;28;20202;-85
2020/12/20 12:21:11;;;;;;;16.90;12.85;;;5.30;99.90;;;;;;5061757;28;20231;-85
2020/12/20 12:23:37;;;;;;;15.32;11.73;;;5.50;99.90;;;;;;5061845;28;20296;-85
2020/12/20 12:26:05;;;;;;;17.63;12.25;;;5.60;99.90;;;;;;5061966;28;20207;-85
2020/12/20 12:28:31;;;;;;;15.27;12.02;;;5.60;99.90;;;;;;5061885;28;20297;-85
2020/12/20 12:30:57;;;;;;;17.30;12.73;;;5.60;99.90;;;;;;5061451;28;20254;-85
2020/12/20 12:33:23;;;;;;;16.88;12.48;;;5.80;99.90;;;;;;5060659;28;20214;-85
2020/12/20 12:35:50;;;;;;;14.90;12.15;;;5.70;99.90;;;;;;5059003;28;20209;-85
2020/12/20 12:38:16;;;;;;;16.35;11.65;;;5.60;99.90;;;;;;5060576;28;20207;-84
2020/12/20 12:40:42;;;;;;;19.58;12.52;;;5.50;99.90;;;;;;5060975;28;20248;-85